Time;durP1;ratioP1;P1;durP2;ratioP2;P2;SDS_P1;SDS_P2;PMS_P1;PMS_P2;Temp;Humidity;BMP_temperature;BMP_pressure;BME280_temperature;BME280_humidity;BME280_pressure;Samples;Min_cycle;Max_cycle;Signal;HPM_P1;HPM_P2
2021/01/07 00:00:35;;;;;;;14.40;8.20;;;;;;;-0.33;94.55;98807.94;5111369;28;20424;-78
2021/01/07 00:03:01;;;;;;;13.60;8.33;;;;;;;-0.35;94.63;98802.72;5110101;28;20108;-77
2021/01/07 00:05:28;;;;;;;18.47;8.70;;;;;;;-0.38;95.30;98802.97;5111058;28;20075;-78
2021/01/07 00:07:55;;;;;;;15.93;8.57;;;;;;;-0.46;94.83;98790.22;5110488;28;20479;-78
2021/01/07 00:10:21;;;;;;;14.73;8.10;;;;;;;-0.38;95.39;98808.31;5111822;28;20059;-78
2021/01/07 00:12:47;;;;;;;14.17;8.27;;;;;;;-0.47;95.20;98798.38;5110900;28;20039;-77
2021/01/07 00:15:14;;;;;;;18.47;9.50;;;;;;;-0.33;95.02;98807.94;5111543;28;20039;-79
2021/01/07 00:17:41;;;;;;;15.90;8.13;;;;;;;-0.35;95.13;98800.03;5110031;28;20051;-80
2021/01/07 00:20:09;;;;;;;15.27;8.40;;;;;;;-0.34;95.42;98804.41;5092678;28;20058;-79
2021/01/07 00:22:36;;;;;;;19.57;8.17;;;;;;;-0.39;94.78;98799.44;5099290;28;20496;-79
2021/01/07 00:25:04;;;;;;;13.60;8.33;;;;;;;-0.29;94.76;98809.38;5104148;28;20048;-79
2021/01/07 00:27:30;;;;;;;14.10;8.73;;;;;;;-0.27;94.47;98807.44;5110176;28;20055;-79
2021/01/07 00:29:56;;;;;;;16.80;9.00;;;;;;;-0.30;94.38;98794.31;5110273;28;20508;-79
2021/01/07 00:32:23;;;;;;;16.17;7.70;;;;;;;-0.18;94.09;98804.03;5110110;28;20078;-79
2021/01/07 00:34:49;;;;;;;15.87;9.27;;;;;;;-0.19;93.98;98813.00;5110903;28;20449;-79
2021/01/07 00:37:15;;;;;;;15.57;8.20;;;;;;;-0.32;94.18;98791.78;5112235;28;20047;-79
2021/01/07 00:39:43;;;;;;;18.97;8.30;;;;;;;-0.20;93.41;98805.97;5110949;28;20059;-79
2021/01/07 00:42:09;;;;;;;15.83;8.93;;;;;;;-0.23;93.78;98806.22;5110360;28;20097;-79
2021/01/07 00:44:36;;;;;;;14.83;8.80;;;;;;;-0.19;93.95;98807.66;5111183;28;20051;-80
2021/01/07 00:47:02;;;;;;;16.70;8.40;;;;;;;-0.29;93.73;98796.03;5113155;28;20060;-79
2021/01/07 00:49:29;;;;;;;16.43;8.97;;;;;;;-0.19;93.67;98808.50;5111243;28;20126;-79
2021/01/07 00:51:55;;;;;;;16.73;8.37;;;;;;;-0.22;93.99;98807.91;5110742;28;20625;-80
2021/01/07 00:54:23;;;;;;;14.70;8.60;;;;;;;-0.20;94.46;98808.63;5111944;28;20411;-78
2021/01/07 00:56:50;;;;;;;15.47;8.53;;;;;;;-0.19;93.47;98811.19;5110945;28;20056;-78
2021/01/07 00:59:16;;;;;;;18.40;8.83;;;;;;;-0.20;93.64;98812.16;5111181;28;20059;-78
2021/01/07 01:01:43;;;;;;;15.53;8.60;;;;;;;-0.13;93.64;98811.66;5105120;28;20048;-77
2021/01/07 01:04:10;;;;;;;15.70;8.67;;;;;;;-0.19;93.69;98815.69;5103095;28;20044;-78
2021/01/07 01:06:36;;;;;;;15.10;8.50;;;;;;;-0.27;93.70;98802.09;5112057;28;20043;-78
2021/01/07 01:09:04;;;;;;;15.27;8.60;;;;;;;-0.31;93.60;98800.66;5110887;28;20449;-78
2021/01/07 01:11:30;;;;;;;17.67;9.90;;;;;;;-0.20;93.84;98812.16;5110336;28;20046;-78
2021/01/07 01:13:57;;;;;;;14.90;8.67;;;;;;;-0.26;93.52;98809.13;5108584;28;20369;-77
2021/01/07 01:16:27;;;;;;;16.07;8.87;;;;;;;-0.30;93.37;98811.22;5108278;28;20395;-78
2021/01/07 01:18:53;;;;;;;15.65;9.00;;;;;;;-0.30;93.29;98815.69;5108614;28;20423;-78
2021/01/07 01:21:20;;;;;;;18.63;8.60;;;;;;;-0.31;94.24;98801.50;5108719;28;20047;-78
2021/01/07 01:23:46;;;;;;;22.50;10.00;;;;;;;-0.36;93.69;98809.88;5109317;28;20404;-78
2021/01/07 01:26:15;;;;;;;16.17;9.03;;;;;;;-0.33;93.45;98819.47;5109955;28;20051;-78
2021/01/07 01:28:41;;;;;;;17.93;10.00;;;;;;;-0.37;93.97;98810.84;5109092;28;20396;-77
2021/01/07 01:31:08;;;;;;;19.27;9.93;;;;;;;-0.31;93.85;98824.69;5103008;28;20039;-78
2021/01/07 01:33:34;;;;;;;18.77;9.70;;;;;;;-0.32;94.33;98825.66;5104976;28;20040;-78
2021/01/07 01:36:01;;;;;;;19.97;9.53;;;;;;;-0.42;93.89;98797.03;5109654;28;20047;-78
2021/01/07 01:38:27;;;;;;;19.70;9.80;;;;;;;-0.23;93.34;98822.25;5107582;28;20047;-77
2021/01/07 01:40:53;;;;;;;18.53;9.50;;;;;;;-0.26;93.75;98823.31;5110384;28;20054;-78
2021/01/07 01:43:19;;;;;;;20.63;9.70;;;;;;;-0.28;93.74;98817.28;5109691;28;20066;-78
2021/01/07 01:45:45;;;;;;;20.37;10.17;;;;;;;-0.26;93.69;98825.16;5113950;28;20044;-78
2021/01/07 01:48:13;;;;;;;17.50;9.47;;;;;;;-0.31;93.69;98812.19;5112839;28;20044;-78
2021/01/07 01:50:39;;;;;;;20.73;10.73;;;;;;;-0.16;93.18;98823.44;5113854;28;20051;-77
2021/01/07 01:53:05;;;;;;;20.90;10.33;;;;;;;-0.19;93.07;98819.19;5113764;28;20043;-78
2021/01/07 01:55:31;;;;;;;20.23;10.80;;;;;;;-0.12;93.67;98822.22;5113942;28;20054;-77
2021/01/07 01:58:00;;;;;;;22.20;10.57;;;;;;;-0.17;93.18;98812.88;5113650;28;20051;-78
2021/01/07 02:00:26;;;;;;;20.87;10.90;;;;;;;-0.23;93.20;98823.06;5114024;28;20285;-77
2021/01/07 02:02:52;;;;;;;21.77;9.80;;;;;;;-0.22;93.12;98815.94;5113711;28;20043;-78
2021/01/07 02:05:19;;;;;;;20.10;10.17;;;;;;;-0.11;92.89;98821.22;5112685;28;20051;-77
2021/01/07 02:07:46;;;;;;;16.73;9.13;;;;;;;-0.15;93.51;98825.16;5112223;28;20044;-78
2021/01/07 02:10:14;;;;;;;16.77;9.27;;;;;;;-0.26;93.24;98815.31;5113681;28;20040;-78
2021/01/07 02:12:44;;;;;;;18.30;10.30;;;;;;;-0.21;93.29;98821.16;5113395;28;20105;-77
2021/01/07 02:15:12;;;;;;;21.33;10.03;;;;;;;-0.15;92.67;98814.47;5113681;28;20052;-77
2021/01/07 02:17:39;;;;;;;20.70;10.87;;;;;;;-0.18;93.26;98814.72;5112884;28;20055;-76
2021/01/07 02:20:08;;;;;;;19.23;10.43;;;;;;;-0.16;93.20;98819.94;5113993;28;20051;-77
2021/01/07 02:22:34;;;;;;;18.20;10.47;;;;;;;-0.07;92.75;98822.69;5111416;28;20556;-77
2021/01/07 02:25:01;;;;;;;20.47;10.30;;;;;;;-0.13;92.57;98827.69;5113586;28;20389;-78
2021/01/07 02:27:27;;;;;;;20.47;9.77;;;;;;;-0.14;92.66;98834.00;5113480;28;20052;-78
2021/01/07 02:29:53;;;;;;;17.27;10.20;;;;;;;-0.15;93.25;98824.28;5112371;28;20384;-77
2021/01/07 02:32:19;;;;;;;15.80;9.60;;;;;;;-0.08;93.01;98826.31;5112675;28;20047;-77
2021/01/07 02:34:46;;;;;;;21.30;10.90;;;;;;;-0.10;93.31;98827.44;5113474;28;20036;-78
2021/01/07 02:37:13;;;;;;;20.00;10.77;;;;;;;-0.09;93.32;98826.44;5113646;28;20420;-77
2021/01/07 02:39:39;;;;;;;19.27;10.27;;;;;;;-0.15;93.31;98827.81;5112560;28;20043;-77
2021/01/07 02:42:05;;;;;;;18.83;10.20;;;;;;;-0.16;93.28;98826.13;5112799;28;20501;-78
2021/01/07 02:44:32;;;;;;;22.17;11.43;;;;;;;-0.12;93.46;98810.66;5113748;28;20047;-77
2021/01/07 02:46:58;;;;;;;22.57;9.80;;;;;;;-0.18;93.15;98817.38;5110889;28;20052;-77
2021/01/07 02:49:24;;;;;;;21.10;10.83;;;;;;;-0.20;92.99;98822.00;5113529;28;20055;-77
2021/01/07 02:51:50;;;;;;;19.07;9.80;;;;;;;-0.17;93.12;98816.41;5113277;28;20467;-77
2021/01/07 02:54:17;;;;;;;21.93;11.40;;;;;;;-0.13;92.77;98815.19;5112621;28;20036;-77
2021/01/07 02:56:44;;;;;;;21.70;10.63;;;;;;;-0.16;93.27;98819.94;5112908;28;20043;-77
2021/01/07 02:59:10;;;;;;;20.13;10.10;;;;;;;-0.16;93.32;98811.91;5110989;28;20055;-77
2021/01/07 03:01:36;;;;;;;20.93;10.27;;;;;;;-0.14;93.72;98809.97;5117233;27;20048;-77
2021/01/07 03:04:03;;;;;;;23.07;10.23;;;;;;;-0.16;93.45;98810.09;5111328;28;20042;-77
2021/01/07 03:06:29;;;;;;;18.80;9.23;;;;;;;-0.16;93.30;98811.91;5111139;28;20054;-77
2021/01/07 03:08:55;;;;;;;21.97;10.00;;;;;;;-0.14;93.25;98817.97;5113550;28;20044;-77
2021/01/07 03:11:22;;;;;;;21.55;10.15;;;;;;;-0.15;93.76;98814.47;5112051;28;20043;-77
2021/01/07 03:13:48;;;;;;;20.07;10.10;;;;;;;-0.22;93.33;98814.09;5112404;28;20050;-77
2021/01/07 03:16:15;;;;;;;20.10;8.97;;;;;;;-0.29;93.59;98793.34;5110647;28;20040;-77
2021/01/07 03:18:41;;;;;;;20.97;11.07;;;;;;;-0.14;93.27;98808.13;5112441;28;20052;-77
2021/01/07 03:21:07;;;;;;;17.70;10.50;;;;;;;-0.15;93.25;98814.47;5111731;28;20047;-77
2021/01/07 03:23:33;;;;;;;17.20;9.33;;;;;;;-0.17;93.70;98812.88;5111119;28;20150;-78
2021/01/07 03:26:00;;;;;;;19.20;10.65;;;;;;;-0.15;93.30;98809.13;5110985;28;20051;-77
2021/01/07 03:28:27;;;;;;;19.60;10.60;;;;;;;-0.16;93.34;98809.25;5112858;28;20108;-79
2021/01/07 03:30:53;;;;;;;21.33;9.85;;;;;;;-0.17;93.99;98810.22;5113940;28;20479;-77
2021/01/07 03:33:20;;;;;;;18.27;9.68;;;;;;;-0.19;93.51;98821.03;5114089;28;20399;-77
2021/01/07 03:35:46;;;;;;;19.20;9.67;;;;;;;-0.20;92.79;98814.84;5114386;28;20048;-77
2021/01/07 03:38:12;;;;;;;18.00;10.57;;;;;;;-0.23;93.26;98807.03;5114296;28;20047;-77
2021/01/07 03:40:38;;;;;;;19.57;10.70;;;;;;;-0.15;93.56;98810.91;5114479;28;20052;-77
2021/01/07 03:43:05;;;;;;;19.67;10.47;;;;;;;-0.13;92.84;98814.34;5114012;28;20089;-77
2021/01/07 03:45:32;;;;;;;18.27;9.70;;;;;;;-0.07;93.13;98809.31;5113998;28;20047;-77
2021/01/07 03:47:58;;;;;;;17.37;9.50;;;;;;;-0.15;93.06;98803.78;5114126;28;20234;-77
2021/01/07 03:50:25;;;;;;;21.73;10.30;;;;;;;-0.12;93.42;98816.00;5114450;28;20047;-77
2021/01/07 03:52:51;;;;;;;20.90;10.97;;;;;;;-0.20;93.64;98801.47;5113757;28;20043;-77
2021/01/07 03:55:17;;;;;;;22.23;10.53;;;;;;;-0.18;92.96;98809.38;5114030;28;20074;-77
2021/01/07 03:57:44;;;;;;;28.63;11.07;;;;;;;-0.28;93.97;98798.56;5114382;28;20052;-77
2021/01/07 04:00:11;;;;;;;21.97;9.97;;;;;;;-0.20;92.95;98798.81;5114357;28;20051;-77
2021/01/07 04:02:38;;;;;;;18.90;10.53;;;;;;;-0.18;92.99;98793.34;5113924;28;20059;-77
2021/01/07 04:05:05;;;;;;;22.87;11.53;;;;;;;-0.20;93.68;98787.25;5113889;28;20614;-77
2021/01/07 04:07:32;;;;;;;20.53;10.90;;;;;;;-0.17;93.18;98791.50;5112982;28;20043;-77
2021/01/07 04:09:58;;;;;;;21.97;10.83;;;;;;;-0.17;92.87;98789.66;5113963;28;20051;-77
2021/01/07 04:12:24;;;;;;;21.03;11.10;;;;;;;-0.17;93.35;98797.69;5114045;28;20550;-77
2021/01/07 04:14:50;;;;;;;24.13;11.97;;;;;;;-0.15;93.05;98802.91;5113844;28;20101;-77
2021/01/07 04:17:17;;;;;;;24.60;12.83;;;;;;;-0.15;93.30;98794.88;5114005;28;20043;-77
2021/01/07 04:19:44;;;;;;;23.37;10.33;;;;;;;-0.15;93.38;98792.22;5113921;28;20096;-77
2021/01/07 04:22:10;;;;;;;21.93;10.97;;;;;;;-0.10;92.85;98795.38;5114021;28;20095;-77
2021/01/07 04:24:36;;;;;;;23.63;10.87;;;;;;;-0.13;93.50;98795.63;5114164;28;20633;-77
2021/01/07 04:27:03;;;;;;;25.20;12.03;;;;;;;-0.09;94.07;98791.72;5113829;28;20051;-77
2021/01/07 04:29:30;;;;;;;24.93;12.03;;;;;;;-0.09;93.69;98792.59;5096689;28;20075;-77
2021/01/07 04:31:56;;;;;;;26.37;11.30;;;;;;;-0.09;93.64;98789.91;5113405;28;20043;-77
2021/01/07 04:34:22;;;;;;;26.60;12.83;;;;;;;-0.09;93.11;98789.91;5114115;28;20442;-77
2021/01/07 04:36:49;;;;;;;25.10;11.80;;;;;;;-0.10;93.31;98779.34;5113866;28;20058;-77
2021/01/07 04:39:17;;;;;;;22.93;11.73;;;;;;;-0.08;93.38;98780.06;5112217;28;20040;-77
2021/01/07 04:41:43;;;;;;;24.57;11.57;;;;;;;-0.04;93.05;98790.38;5112917;28;20047;-77
2021/01/07 04:44:10;;;;;;;27.23;11.53;;;;;;;-0.09;92.56;98789.03;5112968;28;20044;-77
2021/01/07 04:46:37;;;;;;;23.33;12.30;;;;;;;-0.06;92.65;98786.13;5112921;28;20043;-77
2021/01/07 04:49:04;;;;;;;22.10;11.43;;;;;;;-0.12;93.02;98795.50;5113474;28;20047;-77
2021/01/07 04:51:30;;;;;;;21.70;11.47;;;;;;;-0.23;93.11;98777.66;5113537;28;20044;-77
2021/01/07 04:53:57;;;;;;;26.00;10.80;;;;;;;-0.15;93.28;98798.44;5113699;28;20044;-77
2021/01/07 04:56:24;;;;;;;21.93;11.43;;;;;;;-0.14;93.38;98797.44;5113473;28;20043;-77
2021/01/07 04:58:50;;;;;;;24.00;11.67;;;;;;;-0.22;93.10;98782.03;5113555;28;20407;-77
2021/01/07 05:01:16;;;;;;;21.83;11.13;;;;;;;-0.10;93.97;98798.06;5113830;28;20055;-77
2021/01/07 05:03:46;;;;;;;22.23;11.67;;;;;;;-0.11;93.73;98799.84;5113627;28;20040;-77
2021/01/07 05:06:12;;;;;;;25.08;12.48;;;;;;;-0.05;93.30;98798.50;5113211;28;20143;-77
2021/01/07 05:08:39;;;;;;;28.40;13.60;;;;;;;-0.09;93.20;98776.53;5113136;28;20597;-77
2021/01/07 05:11:06;;;;;;;29.67;13.17;;;;;;;-0.13;93.07;98768.91;5113671;28;20122;-77
2021/01/07 05:13:32;;;;;;;31.03;13.40;;;;;;;-0.05;92.94;98775.28;5113855;28;20047;-77
2021/01/07 05:15:59;;;;;;;25.17;12.97;;;;;;;-0.07;93.04;98777.25;5113167;28;20051;-77
2021/01/07 05:18:25;;;;;;;25.50;13.23;;;;;;;-0.03;93.43;98788.53;5115121;28;20043;-77
2021/01/07 05:20:51;;;;;;;27.23;13.13;;;;;;;-0.10;93.63;98785.53;5116780;28;20134;-77
2021/01/07 05:23:21;;;;;;;30.23;13.23;;;;;;;-0.06;93.96;98794.13;5116963;28;20349;-77
2021/01/07 05:25:55;;;;;;;25.98;12.00;;;;;;;-0.07;93.28;98777.25;5116820;28;20055;-77
2021/01/07 05:28:22;;;;;;;26.00;12.30;;;;;;;-0.08;93.13;98777.38;5116991;28;20423;-77
2021/01/07 05:30:49;;;;;;;24.63;12.57;;;;;;;-0.05;92.86;98783.31;5117043;28;20043;-77
2021/01/07 05:33:15;;;;;;;25.73;11.97;;;;;;;-0.01;93.57;98778.59;5117205;28;20044;-77
2021/01/07 05:35:41;;;;;;;25.98;12.48;;;;;;;-0.04;93.19;98786.84;5096302;28;20048;-77
2021/01/07 05:38:08;;;;;;;25.00;11.77;;;;;;;-0.05;92.93;98782.47;5096147;28;20048;-77
2021/01/07 05:40:35;;;;;;;22.70;11.77;;;;;;;-0.07;93.39;98793.28;5104125;28;20051;-77
2021/01/07 05:43:08;;;;;;;25.90;12.30;;;;;;;-0.05;93.57;98794.00;5116389;28;20082;-77
2021/01/07 05:45:37;;;;;;;23.90;11.77;;;;;;;-0.06;93.55;98792.31;5116044;28;20090;-77
2021/01/07 05:48:05;;;;;;;24.33;12.03;;;;;;;-0.07;93.46;98793.28;5116492;28;20048;-77
2021/01/07 05:50:37;;;;;;;26.80;11.40;;;;;;;-0.09;93.83;98786.38;5116574;28;20101;-77
2021/01/07 05:53:04;;;;;;;23.50;11.87;;;;;;;-0.07;92.88;98779.94;5116235;28;20066;-77
2021/01/07 05:55:30;;;;;;;24.73;11.87;;;;;;;-0.16;93.58;98767.34;5116578;28;20082;-77
2021/01/07 05:57:59;;;;;;;27.43;12.27;;;;;;;-0.13;93.54;98767.06;5116515;28;20059;-77
2021/01/07 06:00:30;;;;;;;30.07;12.57;;;;;;;-0.09;93.83;98771.19;5116692;28;20131;-79
2021/01/07 06:02:59;;;;;;;24.93;12.37;;;;;;;0.01;93.40;98781.97;5116552;28;20050;-78
2021/01/07 06:05:25;;;;;;;24.20;11.67;;;;;;;-0.02;92.98;98780.38;5116125;28;20467;-79
2021/01/07 06:07:53;;;;;;;24.17;12.33;;;;;;;-0.01;93.75;98784.75;5116511;28;20110;-79
2021/01/07 06:10:21;;;;;;;25.50;12.57;;;;;;;-0.04;93.33;98770.81;5116467;28;20055;-78
2021/01/07 06:12:49;;;;;;;26.00;11.90;;;;;;;-0.08;93.62;98759.50;5097663;28;20043;-78
2021/01/07 06:15:18;;;;;;;27.63;12.27;;;;;;;0.04;93.24;98775.53;5107471;28;20404;-78
2021/01/07 06:17:46;;;;;;;25.10;12.32;;;;;;;0.03;92.62;98773.81;5114827;28;20044;-78
2021/01/07 06:20:15;;;;;;;32.77;14.57;;;;;;;0.01;93.20;98775.78;5115417;28;20744;-79
2021/01/07 06:22:46;;;;;;;26.03;11.93;;;;;;;-0.01;93.01;98779.41;5115983;28;20077;-78
2021/01/07 06:25:14;;;;;;;22.93;11.90;;;;;;;0.04;92.99;98781.72;5114942;28;20043;-78
2021/01/07 06:27:44;;;;;;;25.93;11.93;;;;;;;0.07;92.86;98777.94;5114718;28;20051;-78
2021/01/07 06:30:34;;;;;;;28.65;12.93;;;;;;;0.04;93.20;98783.53;5107875;28;20044;-78
2021/01/07 06:33:08;;;;;;;33.15;14.13;;;;;;;0.07;93.55;98783.28;5108937;28;20505;-78
2021/01/07 06:35:38;;;;;;;28.90;13.40;;;;;;;-0.04;93.02;98781.50;5112036;28;20094;-78
2021/01/07 06:38:04;;;;;;;27.45;12.95;;;;;;;0.02;92.82;98785.50;5112400;28;20044;-78
2021/01/07 06:40:30;;;;;;;22.65;11.52;;;;;;;-0.07;92.39;98777.25;5094135;28;20055;-78
2021/01/07 06:42:57;;;;;;;23.53;11.20;;;;;;;0.01;92.95;98787.31;5112814;28;20036;-78
2021/01/07 06:45:26;;;;;;;25.03;13.43;;;;;;;0.04;93.01;98794.22;5112634;28;20058;-78
2021/01/07 06:47:53;;;;;;;28.03;12.90;;;;;;;0.04;93.01;98791.56;5114486;28;20047;-78
2021/01/07 06:50:20;;;;;;;22.93;11.63;;;;;;;0.02;93.16;98791.69;5109422;28;20480;-78
2021/01/07 06:52:49;;;;;;;24.70;12.77;;;;;;;-0.07;93.35;98765.72;5112746;28;20557;-78
2021/01/07 06:55:17;;;;;;;20.88;11.60;;;;;;;0.12;93.01;98806.00;5112884;28;20051;-78
2021/01/07 06:57:44;;;;;;;19.38;9.93;;;;;;;-0.06;92.84;98792.31;5111671;28;20506;-78
2021/01/07 07:00:13;;;;;;;18.73;10.07;;;;;;;0.04;92.85;98802.25;5113064;28;20130;-78
2021/01/07 07:02:40;;;;;;;15.77;8.73;;;;;;;0.05;92.75;98803.97;5111116;28;20051;-78
2021/01/07 07:05:09;;;;;;;16.70;8.40;;;;;;;0.06;92.72;98803.84;5099250;27;20050;-78
2021/01/07 07:07:57;;;;;;;21.13;10.10;;;;;;;0.05;92.81;98799.44;5109128;28;20043;-77
2021/01/07 07:10:56;;;;;;;17.53;8.57;;;;;;;0.04;93.00;98804.94;5111284;28;20580;-78
2021/01/07 07:13:25;;;;;;;16.70;9.27;;;;;;;0.11;93.13;98811.47;5047764;28;20044;-78
2021/01/07 07:15:52;;;;;;;19.45;9.32;;;;;;;0.03;93.13;98805.88;5100460;28;20122;-78
2021/01/07 07:18:25;;;;;;;15.25;8.63;;;;;;;0.01;93.06;98811.38;5114142;28;20048;-78
2021/01/07 07:20:51;;;;;;;17.67;8.30;;;;;;;0.01;92.78;98811.38;5113146;28;20873;-78
2021/01/07 07:23:21;;;;;;;13.90;7.53;;;;;;;0.00;92.56;98809.69;5095404;28;20499;-78
2021/01/07 07:25:50;;;;;;;14.13;7.22;;;;;;;-0.01;92.51;98814.16;5114228;28;20055;-78
2021/01/07 07:28:19;;;;;;;11.70;7.03;;;;;;;0.02;92.36;98812.22;5114080;28;20518;-78
2021/01/07 07:30:47;;;;;;;12.30;7.73;;;;;;;0.05;92.36;98820.00;5114368;28;20442;-78
2021/01/07 07:33:31;;;;;;;15.13;7.30;;;;;;;-0.01;93.05;98813.31;5114746;28;20043;-78
2021/01/07 07:35:57;;;;;;;13.90;7.67;;;;;;;0.08;92.73;98817.91;5125160;27;20050;-78
2021/01/07 07:38:29;;;;;;;12.57;7.50;;;;;;;0.05;92.82;98823.50;5116641;27;20051;-78
2021/01/07 07:41:01;;;;;;;13.27;7.50;;;;;;;0.05;92.89;98828.00;5114602;28;20047;-78
2021/01/07 07:43:30;;;;;;;14.63;7.40;;;;;;;-0.06;92.76;98816.38;5114321;28;20052;-78
2021/01/07 07:45:56;;;;;;;11.97;7.70;;;;;;;0.03;92.30;98828.13;5112993;28;20040;-78
2021/01/07 07:48:25;;;;;;;16.63;7.13;;;;;;;0.02;92.45;98823.75;5118309;27;20043;-78
2021/01/07 07:51:03;;;;;;;10.83;6.27;;;;;;;0.03;92.65;98821.94;5120872;27;20056;-78
2021/01/07 07:53:30;;;;;;;15.10;7.50;;;;;;;0.10;92.69;98823.97;5110742;28;20135;-78
2021/01/07 07:55:57;;;;;;;14.65;7.03;;;;;;;0.13;92.67;98829.06;5111488;28;20092;-78
2021/01/07 07:58:23;;;;;;;12.77;7.00;;;;;;;0.12;93.10;98837.19;5112099;28;20100;-78
2021/01/07 08:00:50;;;;;;;14.55;6.85;;;;;;;0.12;92.71;98834.53;5111668;28;20083;-78
2021/01/07 08:03:22;;;;;;;12.07;7.17;;;;;;;0.13;92.52;98829.06;5111732;28;20039;-78
2021/01/07 08:05:49;;;;;;;12.83;7.43;;;;;;;0.09;92.06;98838.31;5092830;28;20237;-78
2021/01/07 08:08:22;;;;;;;14.07;8.10;;;;;;;0.08;91.74;98844.63;5110754;28;20044;-78
2021/01/07 08:10:49;;;;;;;14.13;7.43;;;;;;;0.14;91.58;98836.09;5109075;28;20528;-78
2021/01/07 08:13:19;;;;;;;16.33;7.63;;;;;;;0.19;91.40;98843.75;5110953;28;20039;-78
2021/01/07 08:15:51;;;;;;;13.57;7.28;;;;;;;0.16;91.51;98838.66;5110180;28;20139;-78
2021/01/07 08:18:19;;;;;;;11.07;6.40;;;;;;;0.17;90.88;98848.38;5112652;28;20494;-77
2021/01/07 08:20:46;;;;;;;10.97;6.60;;;;;;;0.11;91.04;98831.00;5108632;28;20043;-77
2021/01/07 08:23:15;;;;;;;12.90;6.72;;;;;;;0.19;90.81;98848.25;5105975;28;20040;-77
2021/01/07 08:25:44;;;;;;;11.80;5.97;;;;;;;0.16;91.27;98857.38;5093295;28;20081;-77
2021/01/07 08:28:20;;;;;;;11.18;5.97;;;;;;;0.14;91.38;98857.50;5111942;28;20047;-77
2021/01/07 08:30:50;;;;;;;11.10;5.67;;;;;;;0.01;91.31;98848.78;5112777;28;20094;-77
2021/01/07 08:33:18;;;;;;;14.27;7.25;;;;;;;0.10;92.22;98852.53;5108401;28;20432;-77
2021/01/07 08:35:45;;;;;;;10.75;5.90;;;;;;;-0.01;91.85;98848.06;5110600;28;20051;-77
2021/01/07 08:38:23;;;;;;;9.77;6.10;;;;;;;-0.01;92.31;98859.59;5109202;28;20453;-77
2021/01/07 08:40:50;;;;;;;14.00;6.83;;;;;;;0.01;92.59;98861.31;5093220;28;20055;-77
2021/01/07 08:43:17;;;;;;;16.87;7.80;;;;;;;0.06;92.58;98867.97;5112950;28;20043;-77
2021/01/07 08:45:43;;;;;;;14.87;7.77;;;;;;;0.11;92.54;98867.59;5111714;28;20407;-76
2021/01/07 08:48:10;;;;;;;12.57;6.93;;;;;;;0.02;92.40;98846.97;5112175;28;20400;-77
2021/01/07 08:50:36;;;;;;;15.27;7.97;;;;;;;-0.06;92.19;98856.47;5112999;28;20203;-78
2021/01/07 08:53:08;;;;;;;13.83;7.90;;;;;;;0.02;92.32;98842.47;5114546;28;20044;-78
2021/01/07 08:55:47;;;;;;;17.00;7.97;;;;;;;0.01;91.73;98831.91;5117136;28;20057;-78
2021/01/07 08:58:22;;;;;;;19.98;8.95;;;;;;;0.18;92.09;98860.75;5116698;28;20096;-79
2021/01/07 09:00:49;;;;;;;14.93;8.20;;;;;;;0.23;91.23;98847.88;5112928;28;20388;-79
2021/01/07 09:03:19;;;;;;;16.33;8.30;;;;;;;0.13;90.91;98853.13;5117367;28;20044;-80
2021/01/07 09:05:48;;;;;;;20.40;10.63;;;;;;;0.22;91.70;98864.88;5117428;28;20373;-79
2021/01/07 09:08:15;;;;;;;19.77;10.18;;;;;;;0.20;91.70;98864.16;5115595;28;20465;-79
2021/01/07 09:10:42;;;;;;;19.00;9.17;;;;;;;0.27;91.26;98857.34;5115131;28;20051;-79
2021/01/07 09:13:18;;;;;;;21.73;10.27;;;;;;;0.23;91.15;98844.38;5115217;28;20039;-79
2021/01/07 09:15:46;;;;;;;18.43;7.97;;;;;;;0.30;91.10;98861.56;5115072;28;20051;-80
2021/01/07 09:18:12;;;;;;;24.00;9.53;;;;;;;0.23;91.08;98853.22;5115321;28;20055;-79
2021/01/07 09:20:39;;;;;;;18.60;9.07;;;;;;;0.43;91.26;98861.41;5115571;28;20086;-79
2021/01/07 09:23:06;;;;;;;22.83;9.60;;;;;;;0.42;91.17;98847.19;5115347;28;20048;-79
2021/01/07 09:25:33;;;;;;;22.23;10.17;;;;;;;0.46;90.49;98855.81;5114498;28;20075;-79
2021/01/07 09:28:00;;;;;;;27.20;10.90;;;;;;;0.44;90.17;98841.72;5115051;28;20476;-79
2021/01/07 09:30:27;;;;;;;22.53;11.73;;;;;;;0.33;90.02;98838.13;5114168;28;20044;-79
2021/01/07 09:32:55;;;;;;;21.70;10.33;;;;;;;0.48;90.69;98832.44;5115126;28;20051;-79
2021/01/07 09:35:22;;;;;;;23.30;11.23;;;;;;;0.57;89.94;98854.91;5114895;28;20048;-79
2021/01/07 09:37:49;;;;;;;28.07;11.60;;;;;;;0.66;89.47;98854.13;5114464;28;20060;-79
2021/01/07 09:40:16;;;;;;;28.53;11.70;;;;;;;0.70;89.06;98860.91;5115476;28;20047;-79
2021/01/07 09:42:42;;;;;;;22.13;11.17;;;;;;;0.69;88.81;98856.53;5113745;28;20491;-80
2021/01/07 09:45:11;;;;;;;25.20;11.18;;;;;;;0.62;88.52;98844.69;5114641;28;20059;-80
2021/01/07 09:47:38;;;;;;;23.55;11.20;;;;;;;0.52;88.55;98840.06;5114529;28;20044;-80
2021/01/07 09:50:07;;;;;;;23.63;11.30;;;;;;;0.51;88.53;98853.59;5114271;28;20077;-79
2021/01/07 09:52:33;;;;;;;26.25;12.07;;;;;;;0.67;88.60;98847.81;5114080;28;20054;-79
2021/01/07 09:55:00;;;;;;;25.55;11.38;;;;;;;0.69;88.75;98851.19;5114710;28;20051;-79
2021/01/07 09:57:26;;;;;;;21.77;11.17;;;;;;;0.75;88.26;98857.84;5114839;28;20043;-80
2021/01/07 09:59:53;;;;;;;24.60;12.18;;;;;;;0.80;88.44;98851.16;5113630;28;20043;-79
2021/01/07 10:02:19;;;;;;;25.30;11.57;;;;;;;0.74;87.84;98832.06;5114292;28;20491;-80
2021/01/07 10:04:45;;;;;;;22.77;10.68;;;;;;;0.82;88.48;98851.84;5112812;28;20052;-80
2021/01/07 10:07:14;;;;;;;28.30;12.43;;;;;;;0.91;88.46;98860.09;5114503;28;20066;-80
2021/01/07 10:09:41;;;;;;;34.03;11.95;;;;;;;0.83;88.48;98821.44;5095574;28;20149;-79
2021/01/07 10:12:08;;;;;;;24.55;11.30;;;;;;;0.93;88.44;98829.50;5113915;28;20063;-79
2021/01/07 10:14:35;;;;;;;25.35;11.13;;;;;;;1.00;86.90;98848.59;5113355;28;20051;-80
2021/01/07 10:17:03;;;;;;;25.33;11.90;;;;;;;1.01;87.20;98837.75;5114209;28;20058;-80
2021/01/07 10:19:31;;;;;;;27.98;11.82;;;;;;;1.00;86.95;98841.41;5114475;28;20048;-80
2021/01/07 10:22:01;;;;;;;34.08;14.32;;;;;;;1.09;87.90;98839.75;5113636;28;20054;-80
2021/01/07 10:24:29;;;;;;;33.60;13.57;;;;;;;1.09;87.15;98830.88;5113869;28;20131;-80
2021/01/07 10:27:00;;;;;;;28.92;12.88;;;;;;;1.11;86.25;98848.50;5113821;28;20044;-79
2021/01/07 10:29:31;;;;;;;25.85;12.07;;;;;;;1.07;86.09;98836.38;5113696;28;20519;-80
2021/01/07 10:32:02;;;;;;;25.33;11.70;;;;;;;1.01;86.85;98840.44;5113830;28;20051;-80
2021/01/07 10:34:30;;;;;;;22.25;10.93;;;;;;;0.90;84.74;98819.06;5113667;28;20295;-80
2021/01/07 10:36:58;;;;;;;22.92;11.25;;;;;;;0.84;86.01;98817.78;5113210;28;20047;-80
2021/01/07 10:39:25;;;;;;;21.83;11.15;;;;;;;1.01;84.90;98842.22;5113903;28;20211;-80
2021/01/07 10:41:57;;;;;;;23.23;10.85;;;;;;;1.03;84.75;98821.56;5113851;28;20092;-79
2021/01/07 10:44:27;;;;;;;24.58;11.30;;;;;;;1.26;85.12;98838.28;5113002;28;20048;-79
2021/01/07 10:46:57;;;;;;;30.63;12.20;;;;;;;1.10;85.69;98801.31;5113796;28;20063;-79
2021/01/07 10:49:26;;;;;;;;;;;;;;;1.26;84.17;98827.56;5113667;28;20063;-80
2021/01/07 10:52:03;;;;;;;25.60;11.07;;;;;;;1.15;84.24;98809.78;5113911;28;20360;-80
2021/01/07 10:54:47;;;;;;;23.20;10.45;;;;;;;1.17;82.87;98813.16;5112975;28;20063;-80
2021/01/07 10:57:36;;;;;;;26.20;10.23;;;;;;;1.32;82.76;98821.69;5113820;28;20051;-79
2021/01/07 11:00:06;;;;;;;22.13;11.85;;;;;;;1.33;82.91;98818.03;5113373;28;20048;-79
2021/01/07 11:02:59;;;;;;;20.13;9.07;;;;;;;1.29;84.03;98807.72;5113300;28;20050;-79
2021/01/07 11:05:27;;;;;;;21.58;10.65;;;;;;;1.34;83.05;98809.03;5112535;28;20127;-79
2021/01/07 11:08:07;;;;;;;23.83;10.60;;;;;;;1.32;83.64;98797.56;5113394;28;20048;-80
2021/01/07 11:10:35;;;;;;;;;;;;;;;1.47;84.03;98806.09;5112780;28;20047;-79
2021/01/07 11:13:07;;;;;;;22.33;9.32;;;;;;;1.47;83.70;98781.97;5113105;28;19923;-79
2021/01/07 11:15:35;;;;;;;22.05;9.95;;;;;;;1.61;82.60;98793.31;5112623;28;20055;-80
2021/01/07 11:18:07;;;;;;;20.95;8.18;;;;;;;1.56;81.06;98805.28;5112773;28;20055;-80
2021/01/07 11:20:34;;;;;;;22.67;10.02;;;;;;;1.64;82.13;98803.75;5113134;28;20044;-79
2021/01/07 11:23:01;;;;;;;21.92;9.70;;;;;;;1.51;80.83;98778.06;5112225;28;20055;-79
2021/01/07 11:25:27;;;;;;;21.85;10.20;;;;;;;1.36;80.62;98764.19;5112540;28;20047;-80
2021/01/07 11:27:57;;;;;;;17.83;8.50;;;;;;;1.45;80.80;98772.41;5112588;28;20052;-80